Time;durP1;ratioP1;P1;durP2;ratioP2;P2;SDS_P1;SDS_P2;PMS_P1;PMS_P2;Temp;Humidity;BMP_temperature;BMP_pressure;BME280_temperature;BME280_humidity;BME280_pressure;Samples;Min_cycle;Max_cycle;Signal;HPM_P1;HPM_P2
2021/01/20 00:01:26;;;;;;;5.80;4.13;;;;;;;2.39;100.00;99903.69;5030500;28;20200;-80
2021/01/20 00:03:52;;;;;;;5.43;4.23;;;;;;;2.35;100.00;99909.69;5033213;28;20564;-79
2021/01/20 00:06:18;;;;;;;6.80;4.33;;;;;;;2.35;100.00;99908.84;5031242;28;22269;-80
2021/01/20 00:08:44;;;;;;;6.10;4.57;;;;;;;2.33;100.00;99913.13;5035557;28;20233;-80
2021/01/20 00:11:10;;;;;;;7.50;4.20;;;;;;;2.33;100.00;99916.56;5029133;28;20224;-80
2021/01/20 00:13:36;;;;;;;5.00;3.93;;;;;;;2.30;100.00;99915.72;5030740;28;20200;-80
2021/01/20 00:16:02;;;;;;;5.53;4.43;;;;;;;2.31;100.00;99912.28;5032438;28;20224;-80
2021/01/20 00:18:28;;;;;;;5.97;4.20;;;;;;;2.30;100.00;99910.56;5026938;28;20227;-80
2021/01/20 00:20:54;;;;;;;7.03;4.47;;;;;;;2.26;100.00;99918.28;5031242;28;20207;-80
2021/01/20 00:23:20;;;;;;;7.87;4.60;;;;;;;2.26;100.00;99920.00;5028679;28;20596;-79
2021/01/20 00:25:46;;;;;;;5.37;4.00;;;;;;;2.16;100.00;99908.88;5033821;28;20203;-80
2021/01/20 00:28:12;;;;;;;5.50;4.00;;;;;;;2.17;100.00;99914.91;5028342;28;20224;-79
2021/01/20 00:30:38;;;;;;;5.63;3.97;;;;;;;2.15;100.00;99917.47;5031463;28;20200;-79
2021/01/20 00:33:05;;;;;;;4.90;3.80;;;;;;;2.14;100.00;99923.47;5028302;28;20196;-80
2021/01/20 00:35:31;;;;;;;6.47;4.57;;;;;;;2.07;100.00;99925.19;5029922;28;20239;-80
2021/01/20 00:37:56;;;;;;;4.90;3.90;;;;;;;2.06;100.00;99926.06;5027274;28;20224;-80
2021/01/20 00:40:22;;;;;;;5.10;3.90;;;;;;;2.07;100.00;99921.78;5029261;28;20520;-79
2021/01/20 00:42:48;;;;;;;4.70;3.83;;;;;;;2.05;100.00;99924.34;5037504;28;20223;-80
2021/01/20 00:45:14;;;;;;;6.83;4.03;;;;;;;2.02;100.00;99926.06;5031309;28;20200;-80
2021/01/20 00:47:40;;;;;;;4.90;3.97;;;;;;;1.96;100.00;99920.97;5040733;28;20221;-80
2021/01/20 00:50:08;;;;;;;5.00;3.87;;;;;;;1.90;100.00;99929.56;5012512;28;20204;-80
2021/01/20 00:52:34;;;;;;;4.47;3.63;;;;;;;1.83;100.00;99930.38;5033594;28;20573;-80
2021/01/20 00:55:00;;;;;;;4.80;3.40;;;;;;;1.76;100.00;99927.00;5029578;28;20234;-80
2021/01/20 00:57:26;;;;;;;4.40;3.50;;;;;;;1.75;100.00;99932.13;5035680;28;20233;-80
2021/01/20 00:59:52;;;;;;;4.60;3.70;;;;;;;1.74;100.00;99938.97;5027790;28;20273;-79
2021/01/20 01:02:18;;;;;;;5.17;3.97;;;;;;;1.74;100.00;99931.25;5013827;28;20618;-80
2021/01/20 01:04:45;;;;;;;6.00;3.50;;;;;;;1.64;100.00;99937.28;5001581;28;20708;-80
2021/01/20 01:07:13;;;;;;;4.97;3.63;;;;;;;1.61;100.00;99933.00;5013314;28;20229;-79
2021/01/20 01:09:39;;;;;;;5.00;3.80;;;;;;;1.60;100.00;99938.13;5027862;28;20415;-79
2021/01/20 01:12:24;;;;;;;5.67;3.90;;;;;;;1.59;100.00;99939.84;5012192;28;20263;-79
2021/01/20 01:14:50;;;;;;;6.37;3.57;;;;;;;1.59;100.00;99927.00;5012180;28;20208;-80
2021/01/20 01:17:26;;;;;;;5.83;3.93;;;;;;;1.63;100.00;99930.44;5008170;28;20226;-79
2021/01/20 01:19:55;;;;;;;4.30;3.33;;;;;;;1.67;100.00;99927.00;5012561;28;20207;-79
2021/01/20 01:22:22;;;;;;;4.90;3.73;;;;;;;1.73;100.00;99929.56;5028857;28;20213;-80
2021/01/20 01:24:50;;;;;;;6.03;3.73;;;;;;;1.75;100.00;99929.56;5015373;28;20204;-80
2021/01/20 01:27:16;;;;;;;5.83;3.80;;;;;;;1.73;100.00;99936.44;5010118;28;20273;-80
2021/01/20 01:29:42;;;;;;;4.13;3.40;;;;;;;1.74;100.00;99931.25;5005467;28;20201;-80
2021/01/20 01:32:19;;;;;;;3.80;3.40;;;;;;;1.89;100.00;99933.81;5009899;28;20222;-80
2021/01/20 01:34:47;;;;;;;5.00;3.60;;;;;;;1.98;100.00;99942.38;5013847;28;20268;-80
2021/01/20 01:37:13;;;;;;;5.40;3.97;;;;;;;2.07;100.00;99935.50;5026262;28;20293;-80
2021/01/20 01:39:58;;;;;;;4.37;3.67;;;;;;;2.13;100.00;99934.63;5031135;28;20211;-80
2021/01/20 01:42:26;;;;;;;5.67;3.73;;;;;;;2.17;100.00;99931.19;5008035;28;20200;-82
2021/01/20 01:44:54;;;;;;;4.33;3.63;;;;;;;2.19;100.00;99920.91;5013635;28;20623;-80
2021/01/20 01:47:19;;;;;;;5.13;3.47;;;;;;;2.21;100.00;99922.59;5016350;28;20235;-80
2021/01/20 01:49:56;;;;;;;6.00;3.63;;;;;;;2.24;100.00;99927.72;5005533;28;20197;-80
2021/01/20 01:52:23;;;;;;;4.63;3.30;;;;;;;2.27;100.00;99929.47;5031459;28;20239;-80
2021/01/20 01:55:11;;;;;;;4.37;3.53;;;;;;;2.32;100.00;99924.28;5031292;28;20262;-80
2021/01/20 01:57:59;;;;;;;6.47;3.80;;;;;;;2.34;100.00;99927.69;5027208;28;20228;-80
2021/01/20 02:00:26;;;;;;;7.33;3.70;;;;;;;2.36;100.00;99929.41;5024716;28;20525;-80
2021/01/20 02:03:21;;;;;;;6.77;3.77;;;;;;;2.40;100.00;99925.97;5024978;28;20303;-79
2021/01/20 02:05:47;;;;;;;6.37;3.80;;;;;;;2.39;100.00;99929.41;5028626;28;20287;-80
2021/01/20 02:08:14;;;;;;;5.77;3.90;;;;;;;2.42;100.00;99931.94;5037796;28;20572;-80
2021/01/20 02:10:55;;;;;;;5.43;3.63;;;;;;;2.47;100.00;99937.94;5010669;28;20607;-79
2021/01/20 02:13:31;;;;;;;6.33;3.97;;;;;;;2.51;100.00;99932.78;5030794;28;20204;-80
2021/01/20 02:16:35;;;;;;;4.73;3.80;;;;;;;2.54;100.00;99918.19;5008539;28;20215;-80
2021/01/20 02:19:16;;;;;;;5.97;3.60;;;;;;;2.54;100.00;99927.63;5036534;28;20366;-79
2021/01/20 02:22:02;;;;;;;4.73;3.67;;;;;;;2.53;100.00;99915.63;5009710;28;20203;-80
2021/01/20 02:24:57;;;;;;;4.67;3.37;;;;;;;2.54;100.00;99927.63;5039549;28;20226;-80
2021/01/20 02:27:51;;;;;;;5.30;3.93;;;;;;;2.56;100.00;99926.75;5019858;28;20299;-79
2021/01/20 02:30:22;;;;;;;5.00;3.37;;;;;;;2.55;100.00;99927.63;5025290;28;20258;-80
2021/01/20 02:32:55;;;;;;;4.93;3.70;;;;;;;2.54;100.00;99937.94;5028525;28;20215;-80
2021/01/20 02:35:54;;;;;;;5.97;3.90;;;;;;;2.52;100.00;99937.09;5010534;28;20212;-80
2021/01/20 02:38:21;;;;;;;4.30;3.20;;;;;;;2.50;100.00;99937.09;5030981;28;20220;-80
2021/01/20 02:41:04;;;;;;;4.83;3.20;;;;;;;2.49;100.00;99932.78;5024767;28;20211;-80
2021/01/20 02:43:43;;;;;;;4.57;3.30;;;;;;;2.46;100.00;99927.66;5008850;28;20203;-80
2021/01/20 02:46:36;;;;;;;4.30;3.40;;;;;;;2.43;100.00;99928.53;5009740;28;20208;-81
2021/01/20 02:49:09;;;;;;;3.77;2.90;;;;;;;2.40;100.00;99918.25;5013553;28;20207;-80
2021/01/20 02:51:56;;;;;;;5.57;3.77;;;;;;;2.43;100.00;99928.53;5013341;28;20219;-80
2021/01/20 02:54:42;;;;;;;4.53;3.23;;;;;;;2.41;100.00;99931.94;5022240;28;20508;-80
2021/01/20 02:57:27;;;;;;;4.00;3.07;;;;;;;2.37;100.00;99935.41;5027179;28;20333;-80
2021/01/20 03:00:01;;;;;;;4.73;3.20;;;;;;;2.37;100.00;99923.38;5026741;28;20195;-81
2021/01/20 03:02:37;;;;;;;5.30;3.43;;;;;;;2.38;100.00;99916.56;5012354;28;20290;-80
2021/01/20 03:05:04;;;;;;;5.20;3.10;;;;;;;2.34;100.00;99922.53;5028531;28;20203;-79
2021/01/20 03:07:31;;;;;;;3.90;3.17;;;;;;;2.35;100.00;99914.81;5025541;28;20231;-80
2021/01/20 03:09:57;;;;;;;4.17;3.30;;;;;;;2.36;100.00;99915.72;5028529;28;20207;-80
2021/01/20 03:12:27;;;;;;;4.47;3.60;;;;;;;2.32;100.00;99912.25;5031418;28;20535;-80
2021/01/20 03:14:55;;;;;;;4.10;2.80;;;;;;;2.28;100.00;99905.41;5028216;28;20204;-80
2021/01/20 03:17:20;;;;;;;4.20;3.23;;;;;;;2.28;100.00;99895.13;5035825;28;20216;-80
2021/01/20 03:19:47;;;;;;;5.90;3.10;;;;;;;2.26;100.00;99902.84;5020220;28;20217;-80
2021/01/20 03:22:13;;;;;;;3.53;2.97;;;;;;;2.26;100.00;99894.28;5028903;28;20203;-80
2021/01/20 03:24:39;;;;;;;3.97;3.17;;;;;;;2.26;100.00;99902.84;5029922;28;20680;-80
2021/01/20 03:27:05;;;;;;;4.30;3.00;;;;;;;2.23;100.00;99902.88;5035319;28;20467;-80
2021/01/20 03:29:30;;;;;;;3.37;2.63;;;;;;;2.26;100.00;99902.00;5036017;28;20254;-80
2021/01/20 03:31:56;;;;;;;4.20;3.10;;;;;;;2.28;100.00;99897.72;5032449;28;20236;-80
2021/01/20 03:34:22;;;;;;;4.33;3.07;;;;;;;2.29;100.00;99904.56;5040281;28;20204;-80
2021/01/20 03:36:49;;;;;;;4.00;2.93;;;;;;;2.31;100.00;99902.00;5031717;28;20650;-80
2021/01/20 03:39:14;;;;;;;3.63;2.80;;;;;;;2.27;100.00;99896.84;5040230;28;20632;-80
2021/01/20 03:41:40;;;;;;;3.03;2.73;;;;;;;2.25;100.00;99890.88;5034298;28;20199;-80
2021/01/20 03:44:06;;;;;;;4.30;2.70;;;;;;;2.21;100.00;99886.56;5038827;28;20207;-80
2021/01/20 03:46:32;;;;;;;6.07;2.80;;;;;;;2.19;100.00;99879.75;5029802;28;20259;-80
2021/01/20 03:48:58;;;;;;;4.20;3.00;;;;;;;2.19;100.00;99880.59;5039702;28;20651;-80
2021/01/20 03:51:28;;;;;;;3.30;2.93;;;;;;;2.20;100.00;99886.56;5030109;28;20219;-80
2021/01/20 03:53:54;;;;;;;4.27;2.83;;;;;;;2.17;100.00;99887.47;5033461;28;20297;-80
2021/01/20 03:56:20;;;;;;;3.13;2.30;;;;;;;2.16;100.00;99880.59;5034569;28;20212;-80
2021/01/20 03:58:46;;;;;;;5.00;2.70;;;;;;;2.14;100.00;99876.34;5031786;28;20278;-80
2021/01/20 04:01:12;;;;;;;3.10;2.20;;;;;;;2.12;99.76;99881.47;5036388;28;20215;-80
2021/01/20 04:03:37;;;;;;;4.53;2.70;;;;;;;2.13;98.93;99875.47;5034839;28;20203;-80
2021/01/20 04:06:14;;;;;;;9.23;2.60;;;;;;;2.10;99.13;99870.34;5016264;28;20291;-80
2021/01/20 04:08:39;;;;;;;3.83;2.50;;;;;;;2.10;98.58;99864.34;5031776;28;20676;-80
2021/01/20 04:11:06;;;;;;;3.13;2.33;;;;;;;2.10;98.44;99865.19;5007502;28;20220;-81
2021/01/20 04:13:35;;;;;;;3.30;2.47;;;;;;;2.09;98.27;99866.06;5026981;28;20204;-80
2021/01/20 04:16:01;;;;;;;2.77;2.17;;;;;;;2.13;97.81;99869.47;5015133;28;20205;-80
2021/01/20 04:18:26;;;;;;;5.50;2.20;;;;;;;2.14;97.54;99869.47;5028450;28;20278;-80
2021/01/20 04:20:52;;;;;;;2.10;1.77;;;;;;;2.09;98.07;99868.63;5034190;28;20200;-80
2021/01/20 04:23:18;;;;;;;3.07;1.70;;;;;;;2.07;97.51;99867.78;5033381;28;20207;-80
2021/01/20 04:25:44;;;;;;;3.80;1.70;;;;;;;2.10;97.17;99865.19;5031385;28;20208;-80
2021/01/20 04:28:10;;;;;;;4.17;2.03;;;;;;;2.11;96.84;99863.47;5014027;28;20223;-80
2021/01/20 04:30:36;;;;;;;1.67;1.40;;;;;;;2.09;96.84;99868.63;5032228;28;20271;-80
2021/01/20 04:33:02;;;;;;;2.57;1.90;;;;;;;2.11;95.99;99876.34;5031895;28;20243;-80
2021/01/20 04:35:28;;;;;;;3.37;1.63;;;;;;;2.09;95.80;99876.34;5030785;28;20484;-80
2021/01/20 04:37:54;;;;;;;1.67;1.40;;;;;;;2.04;95.98;99865.22;5034386;28;20212;-80
2021/01/20 04:40:20;;;;;;;3.40;1.60;;;;;;;2.05;95.23;99866.94;5030629;28;20303;-80
2021/01/20 04:42:47;;;;;;;2.23;1.60;;;;;;;2.03;95.71;99866.94;5039387;28;20195;-80
2021/01/20 04:45:14;;;;;;;3.67;1.60;;;;;;;2.02;94.82;99862.66;5029058;28;20284;-80
2021/01/20 04:47:42;;;;;;;1.77;1.40;;;;;;;1.97;95.85;99864.41;5006249;28;20224;-80
2021/01/20 04:50:11;;;;;;;3.20;1.60;;;;;;;1.96;95.92;99865.25;5015921;28;20211;-79
2021/01/20 04:52:41;;;;;;;2.40;1.60;;;;;;;1.96;95.50;99865.25;5032820;28;20224;-80
2021/01/20 04:55:10;;;;;;;3.33;1.60;;;;;;;1.96;95.48;99869.53;5032386;28;20207;-80
2021/01/20 04:57:37;;;;;;;2.13;1.50;;;;;;;1.93;95.09;99860.09;5029455;28;20228;-80
2021/01/20 05:00:04;;;;;;;3.00;1.47;;;;;;;1.87;95.74;99860.13;5039082;28;20192;-80
2021/01/20 05:02:33;;;;;;;1.47;1.20;;;;;;;1.86;95.31;99853.28;5029363;28;20201;-81
2021/01/20 05:04:59;;;;;;;2.43;1.50;;;;;;;1.86;95.14;99850.69;5036675;28;20207;-80
2021/01/20 05:07:25;;;;;;;2.93;1.33;;;;;;;1.80;95.19;99854.16;5028456;28;20219;-79
2021/01/20 05:09:51;;;;;;;1.50;1.40;;;;;;;1.74;95.40;99851.59;5034144;28;20691;-80
2021/01/20 05:12:37;;;;;;;1.77;1.30;;;;;;;1.66;95.68;99846.47;5031542;28;20704;-80
2021/01/20 05:15:05;;;;;;;3.23;1.40;;;;;;;1.62;95.35;99843.91;5033455;28;20963;-80
2021/01/20 05:17:32;;;;;;;3.50;1.53;;;;;;;1.56;95.53;99849.06;5033691;28;20212;-80
2021/01/20 05:19:58;;;;;;;1.77;1.40;;;;;;;1.50;95.64;99844.81;5032466;28;20208;-80
2021/01/20 05:22:24;;;;;;;1.67;1.20;;;;;;;1.43;95.66;99836.25;5028342;28;20192;-80
2021/01/20 05:24:58;;;;;;;1.70;1.10;;;;;;;1.38;95.64;99837.13;5031613;28;20208;-80
2021/01/20 05:27:26;;;;;;;1.10;0.90;;;;;;;1.30;95.67;99827.69;5033502;28;20231;-80
2021/01/20 05:29:58;;;;;;;2.07;1.33;;;;;;;1.27;95.84;99832.84;5030429;28;20204;-80
2021/01/20 05:32:24;;;;;;;1.50;1.13;;;;;;;1.28;95.95;99818.28;5034482;28;20228;-80
2021/01/20 05:34:59;;;;;;;1.30;1.20;;;;;;;1.23;95.68;99822.56;5025615;28;20304;-80
2021/01/20 05:37:25;;;;;;;2.17;1.30;;;;;;;1.20;96.05;99820.84;5026367;28;20234;-80
2021/01/20 05:39:51;;;;;;;1.23;1.10;;;;;;;1.14;95.86;99818.28;5022071;28;20742;-79
2021/01/20 05:42:16;;;;;;;2.27;1.00;;;;;;;1.07;95.49;99824.28;5047648;28;20191;-80
2021/01/20 05:45:01;;;;;;;1.30;1.17;;;;;;;1.06;95.96;99822.59;5039305;28;20211;-80
2021/01/20 05:47:27;;;;;;;1.47;1.23;;;;;;;1.00;96.04;99823.41;5040180;28;20216;-80
2021/01/20 05:50:05;;;;;;;2.87;1.50;;;;;;;0.94;96.03;99813.16;5042737;28;20488;-80
2021/01/20 05:52:31;;;;;;;4.27;1.80;;;;;;;0.90;96.33;99811.47;5040627;28;20253;-79
2021/01/20 05:54:57;;;;;;;3.10;2.47;;;;;;;0.83;96.63;99820.00;5032011;28;20727;-80
2021/01/20 05:57:23;;;;;;;2.10;1.53;;;;;;;0.81;96.46;99812.31;5027536;28;20244;-80
2021/01/20 05:59:50;;;;;;;1.93;1.47;;;;;;;0.80;96.48;99818.28;5032628;28;20209;-80
2021/01/20 06:02:17;;;;;;;3.37;1.83;;;;;;;0.77;96.59;99812.28;5029738;28;20219;-80
2021/01/20 06:04:44;;;;;;;1.60;1.20;;;;;;;0.72;96.81;99812.28;5017182;28;20567;-79
2021/01/20 06:07:12;;;;;;;1.97;1.40;;;;;;;0.68;96.94;99818.28;5012741;28;20220;-80
2021/01/20 06:09:39;;;;;;;2.27;1.67;;;;;;;0.64;97.13;99814.00;5027748;28;20215;-79
2021/01/20 06:12:06;;;;;;;2.17;1.40;;;;;;;0.56;97.34;99811.41;5031505;28;20223;-80
2021/01/20 06:14:32;;;;;;;2.37;1.50;;;;;;;0.49;97.31;99836.22;5031822;28;20734;-79
2021/01/20 06:17:04;;;;;;;1.80;1.20;;;;;;;0.44;97.93;99832.78;5027253;28;20359;-79
2021/01/20 06:19:35;;;;;;;1.40;1.30;;;;;;;0.36;98.02;99834.47;5029481;28;20211;-79
2021/01/20 06:22:03;;;;;;;2.53;1.50;;;;;;;0.33;98.04;99826.75;5024609;28;20203;-79
2021/01/20 06:24:37;;;;;;;2.33;1.57;;;;;;;0.28;98.20;99826.75;5030267;28;20555;-80
2021/01/20 06:27:11;;;;;;;1.57;1.40;;;;;;;0.25;98.45;99824.16;5023105;28;20223;-79
2021/01/20 06:29:42;;;;;;;2.13;1.37;;;;;;;0.23;98.69;99823.31;5030697;28;20211;-79
2021/01/20 06:32:10;;;;;;;3.30;1.40;;;;;;;0.24;98.80;99826.72;5028396;28;20592;-80
2021/01/20 06:34:36;;;;;;;1.23;1.03;;;;;;;0.21;98.60;99819.03;5029317;28;20249;-79
2021/01/20 06:37:02;;;;;;;1.70;1.40;;;;;;;0.16;98.92;99827.56;5026364;28;20749;-79
2021/01/20 06:39:33;;;;;;;2.63;1.70;;;;;;;0.16;99.02;99819.88;5030284;28;20286;-79
2021/01/20 06:42:00;;;;;;;2.17;1.40;;;;;;;0.12;98.97;99822.41;5026933;28;20563;-79
2021/01/20 06:44:27;;;;;;;2.90;1.70;;;;;;;0.12;99.50;99825.84;5029716;28;20314;-79
2021/01/20 06:47:01;;;;;;;1.90;1.57;;;;;;;0.12;99.17;99825.84;5030507;28;20290;-79
2021/01/20 06:49:27;;;;;;;1.97;1.47;;;;;;;0.14;99.19;99825.81;5027869;28;20396;-80
2021/01/20 06:52:11;;;;;;;4.70;1.60;;;;;;;0.11;98.93;99821.56;5030538;28;20216;-79
2021/01/20 06:54:40;;;;;;;4.33;1.33;;;;;;;0.13;98.69;99829.25;5025882;28;20208;-79
2021/01/20 06:57:38;;;;;;;2.60;1.43;;;;;;;0.11;98.84;99826.69;5028909;28;20561;-79
2021/01/20 07:00:21;;;;;;;2.00;1.13;;;;;;;0.12;98.86;99830.09;4983118;28;20229;-79
2021/01/20 07:03:01;;;;;;;3.83;1.87;;;;;;;0.14;98.91;99831.84;5029167;28;20230;-79
2021/01/20 07:05:32;;;;;;;2.57;1.60;;;;;;;0.15;99.08;99827.56;5011775;28;20203;-79
2021/01/20 07:07:58;;;;;;;1.23;1.13;;;;;;;0.22;99.19;99831.00;5035192;28;20307;-82
2021/01/20 07:10:26;;;;;;;1.33;1.10;;;;;;;0.24;99.07;99826.72;5029228;28;20192;-79
2021/01/20 07:13:21;;;;;;;3.73;1.60;;;;;;;0.24;98.99;99824.16;5032463;28;20310;-79
2021/01/20 07:15:50;;;;;;;1.80;1.50;;;;;;;0.29;99.00;99819.91;5025839;28;20295;-79
2021/01/20 07:18:17;;;;;;;2.27;1.23;;;;;;;0.29;98.78;99822.47;5028964;28;20224;-79
2021/01/20 07:20:44;;;;;;;2.33;1.77;;;;;;;0.27;98.41;99816.50;5025194;28;20411;-79
2021/01/20 07:23:10;;;;;;;1.97;1.37;;;;;;;0.26;98.62;99819.88;5028758;28;20210;-79
2021/01/20 07:25:37;;;;;;;1.80;1.30;;;;;;;0.29;98.50;99819.91;5010683;28;20200;-79
2021/01/20 07:28:04;;;;;;;3.00;1.30;;;;;;;0.33;98.31;99819.91;5028304;28;20246;-79
2021/01/20 07:30:30;;;;;;;2.20;1.50;;;;;;;0.34;98.18;99823.34;5030075;28;20234;-80
2021/01/20 07:32:56;;;;;;;2.13;1.23;;;;;;;0.32;98.29;99823.34;5028488;28;20704;-80
2021/01/20 07:35:25;;;;;;;2.00;1.30;;;;;;;0.31;98.65;99815.63;5016275;28;20212;-79
2021/01/20 07:38:01;;;;;;;3.70;1.97;;;;;;;0.33;98.61;99824.19;5027102;28;20220;-79
2021/01/20 07:40:28;;;;;;;2.47;1.97;;;;;;;0.35;98.38;99820.78;5030460;28;20207;-80
2021/01/20 07:42:55;;;;;;;4.03;2.17;;;;;;;0.36;98.51;99817.34;5026740;28;20208;-79
2021/01/20 07:45:32;;;;;;;4.30;2.10;;;;;;;0.44;98.48;99826.78;5028420;28;20227;-79
2021/01/20 07:47:58;;;;;;;4.47;2.77;;;;;;;0.50;98.03;99819.94;5024264;28;20233;-79
2021/01/20 07:50:44;;;;;;;4.40;2.07;;;;;;;0.64;97.62;99824.25;5033312;28;20337;-79
2021/01/20 07:53:12;;;;;;;2.53;1.90;;;;;;;0.76;96.91;99824.28;5024185;28;20225;-80
2021/01/20 07:55:38;;;;;;;2.50;1.80;;;;;;;0.86;96.48;99827.69;5028379;28;20202;-79
2021/01/20 07:58:05;;;;;;;5.23;1.67;;;;;;;0.86;96.38;99826.00;5028748;28;20419;-79
2021/01/20 08:00:40;;;;;;;6.10;2.57;;;;;;;0.97;96.29;99828.56;5030832;28;20198;-80
2021/01/20 08:03:05;;;;;;;6.27;2.90;;;;;;;1.07;95.67;99822.59;5029137;28;20201;-79
2021/01/20 08:05:32;;;;;;;6.50;3.20;;;;;;;1.12;95.82;99820.84;5028837;28;20253;-80
2021/01/20 08:08:12;;;;;;;7.20;3.70;;;;;;;1.20;95.26;99820.84;5029897;28;20242;-79
2021/01/20 08:10:39;;;;;;;8.93;4.20;;;;;;;1.25;95.29;99819.16;5030893;28;20197;-79
2021/01/20 08:13:08;;;;;;;6.33;3.40;;;;;;;1.33;94.63;99817.41;5037360;28;20217;-79
2021/01/20 08:15:37;;;;;;;4.70;2.83;;;;;;;1.49;94.34;99830.22;5031160;28;20204;-80
2021/01/20 08:18:05;;;;;;;3.13;2.23;;;;;;;1.58;94.16;99825.06;5032964;28;20404;-79
2021/01/20 08:20:32;;;;;;;6.20;3.40;;;;;;;1.67;93.90;99826.75;5012587;28;20616;-79
2021/01/20 08:22:59;;;;;;;4.67;3.10;;;;;;;1.85;93.06;99831.00;5032856;28;20567;-79
2021/01/20 08:25:25;;;;;;;5.13;2.57;;;;;;;2.04;92.79;99826.63;5025348;28;20217;-79
2021/01/20 08:27:51;;;;;;;6.23;3.57;;;;;;;2.25;91.69;99825.69;5036154;28;20215;-79
2021/01/20 08:30:32;;;;;;;9.97;5.23;;;;;;;2.40;90.39;99835.06;5030401;28;20206;-79
2021/01/20 08:32:59;;;;;;;17.37;7.80;;;;;;;2.48;90.14;99838.47;5032537;28;20603;-79
2021/01/20 08:35:32;;;;;;;11.30;5.07;;;;;;;2.61;90.32;99829.78;5031837;28;20219;-80
2021/01/20 08:37:59;;;;;;;10.13;4.77;;;;;;;2.65;90.12;99825.47;5031459;28;20215;-79
2021/01/20 08:40:25;;;;;;;5.47;2.57;;;;;;;2.77;89.53;99835.69;5024374;28;20687;-80
2021/01/20 08:42:51;;;;;;;8.57;3.47;;;;;;;2.91;88.65;99842.47;5027354;28;20192;-80
2021/01/20 08:45:29;;;;;;;4.07;2.37;;;;;;;2.98;88.90;99850.13;5035675;28;20200;-79
2021/01/20 08:47:59;;;;;;;6.77;3.37;;;;;;;3.10;88.04;99851.75;5032447;28;20223;-80
2021/01/20 08:50:37;;;;;;;4.23;2.10;;;;;;;3.15;87.69;99851.69;5036216;28;20189;-80
2021/01/20 08:53:05;;;;;;;4.07;2.50;;;;;;;3.23;87.48;99858.50;5031075;28;20245;-79
2021/01/20 08:55:33;;;;;;;2.17;1.20;;;;;;;3.39;86.13;99860.94;5013382;28;20287;-79
2021/01/20 08:58:27;;;;;;;3.40;1.60;;;;;;;3.48;85.58;99868.59;5034032;28;20237;-80
2021/01/20 09:00:58;;;;;;;3.37;1.73;;;;;;;3.53;85.52;99866.81;5040697;28;20656;-80
2021/01/20 09:03:26;;;;;;;3.83;2.10;;;;;;;3.62;84.86;99868.47;5038730;28;20200;-80
2021/01/20 09:05:54;;;;;;;1.50;1.37;;;;;;;3.70;84.48;99873.56;5044084;28;20265;-80
2021/01/20 09:08:21;;;;;;;2.40;1.60;;;;;;;3.76;84.60;99878.66;5044265;28;20236;-80
2021/01/20 09:10:48;;;;;;;1.27;1.10;;;;;;;3.84;83.55;99887.16;5043853;28;20202;-80
2021/01/20 09:13:14;;;;;;;3.33;1.30;;;;;;;3.87;83.58;99883.69;5045135;28;20227;-80
2021/01/20 09:15:41;;;;;;;6.27;2.60;;;;;;;3.93;83.33;99881.06;5039151;28;20214;-80
2021/01/20 09:18:06;;;;;;;2.37;1.57;;;;;;;4.02;82.48;99880.09;5030915;28;20228;-80
2021/01/20 09:20:34;;;;;;;2.60;1.30;;;;;;;4.12;82.46;99894.63;5030961;28;20282;-80
2021/01/20 09:23:00;;;;;;;1.43;1.33;;;;;;;4.16;82.53;99883.38;5036922;28;20237;-80
2021/01/20 09:25:26;;;;;;;2.60;1.40;;;;;;;4.21;81.28;99901.41;5032826;28;20208;-80
2021/01/20 09:27:52;;;;;;;3.93;1.30;;;;;;;4.31;80.14;99888.38;5034625;28;20223;-79
2021/01/20 09:30:18;;;;;;;2.27;1.57;;;;;;;4.42;80.71;99884.78;5031127;28;20251;-79
2021/01/20 09:32:44;;;;;;;2.10;1.30;;;;;;;4.45;80.91;99883.03;5035804;28;20216;-80
2021/01/20 09:35:12;;;;;;;2.23;1.30;;;;;;;4.53;79.66;99888.94;5016362;28;20202;-80
2021/01/20 09:37:41;;;;;;;1.93;1.20;;;;;;;4.61;79.65;99893.13;5032482;28;20223;-80
2021/01/20 09:40:09;;;;;;;1.33;1.23;;;;;;;4.71;79.40;99893.00;5033310;28;20212;-80
2021/01/20 09:42:35;;;;;;;1.67;1.40;;;;;;;4.82;78.74;99881.66;5030281;28;20217;-79
2021/01/20 09:45:01;;;;;;;4.93;2.33;;;;;;;4.94;77.76;99876.31;5015921;28;20748;-80
2021/01/20 09:47:27;;;;;;;1.60;1.37;;;;;;;5.06;78.63;99872.69;5032287;28;20604;-79
2021/01/20 09:49:53;;;;;;;2.50;1.70;;;;;;;5.18;78.95;99888.00;5031362;28;20209;-80
2021/01/20 09:52:20;;;;;;;3.70;1.20;;;;;;;5.27;77.24;99874.94;5031892;28;20219;-80
2021/01/20 09:54:47;;;;;;;2.73;1.23;;;;;;;5.24;77.32;99884.47;5031727;28;20254;-79
2021/01/20 09:57:12;;;;;;;1.93;1.30;;;;;;;5.33;75.24;99874.00;5029024;28;20773;-80
2021/01/20 09:59:38;;;;;;;2.07;1.60;;;;;;;5.37;77.69;99872.22;5035219;28;20482;-79
2021/01/20 10:02:04;;;;;;;1.50;1.40;;;;;;;5.42;76.34;99866.06;5032621;28;20616;-80
2021/01/20 10:04:30;;;;;;;1.50;1.17;;;;;;;5.50;74.38;99871.97;5018412;28;20202;-79
2021/01/20 10:06:56;;;;;;;2.57;1.63;;;;;;;5.53;74.33;99877.97;5031902;28;20216;-80
2021/01/20 10:09:22;;;;;;;2.50;1.63;;;;;;;5.56;74.44;99875.31;5031866;28;20188;-80
2021/01/20 10:11:49;;;;;;;2.57;1.67;;;;;;;5.62;74.67;99865.72;5038169;28;20259;-80
2021/01/20 10:14:16;;;;;;;1.37;1.27;;;;;;;5.67;74.81;99863.91;5033091;28;20249;-79
2021/01/20 10:16:46;;;;;;;2.20;1.47;;;;;;;5.76;72.21;99862.88;5030927;28;20693;-80
2021/01/20 10:19:12;;;;;;;2.73;1.70;;;;;;;5.82;72.98;99862.78;5029218;28;20443;-79
2021/01/20 10:21:38;;;;;;;1.67;1.30;;;;;;;5.88;72.27;99864.41;5035633;28;20661;-79
2021/01/20 10:24:04;;;;;;;2.17;1.20;;;;;;;5.91;72.91;99871.22;5030751;28;20411;-79
2021/01/20 10:26:30;;;;;;;1.60;1.50;;;;;;;5.95;73.45;99865.13;5031367;28;20211;-79
2021/01/20 10:28:57;;;;;;;1.60;1.33;;;;;;;5.96;72.42;99859.97;5030406;28;20203;-79
2021/01/20 10:31:23;;;;;;;1.67;1.30;;;;;;;6.06;71.46;99868.38;5035968;28;20203;-79
2021/01/20 10:33:49;;;;;;;1.57;1.33;;;;;;;6.20;71.51;99857.75;5033366;28;20285;-81
2021/01/20 10:36:14;;;;;;;2.67;1.70;;;;;;;6.29;71.32;99856.72;5037523;28;20315;-81
2021/01/20 10:38:40;;;;;;;4.00;1.90;;;;;;;6.37;72.28;99842.75;5033898;28;20231;-80
2021/01/20 10:41:06;;;;;;;1.50;1.40;;;;;;;6.41;71.41;99836.59;5034791;28;20471;-81
2021/01/20 10:43:32;;;;;;;2.00;1.80;;;;;;;6.47;71.82;99845.97;5024167;28;20211;-81
2021/01/20 10:45:58;;;;;;;2.07;1.50;;;;;;;6.49;70.99;99839.03;5019370;28;20216;-81
2021/01/20 10:48:24;;;;;;;1.50;1.23;;;;;;;6.49;71.32;99830.38;5045928;28;20223;-80
2021/01/20 10:50:50;;;;;;;2.90;1.50;;;;;;;6.47;70.47;99835.59;5034263;28;20333;-80
2021/01/20 10:53:16;;;;;;;1.30;1.20;;;;;;;6.44;71.12;99836.53;5022371;28;20216;-80
2021/01/20 10:55:42;;;;;;;3.07;1.27;;;;;;;6.46;70.75;99833.91;5036973;28;20254;-80
2021/01/20 10:58:08;;;;;;;1.80;1.37;;;;;;;6.44;71.54;99833.94;5021962;28;20220;-81
2021/01/20 11:00:33;;;;;;;2.77;1.40;;;;;;;6.46;71.21;99826.16;5040207;28;20669;-81
2021/01/20 11:03:00;;;;;;;1.40;1.30;;;;;;;6.43;71.13;99826.22;5036655;28;20196;-80
2021/01/20 11:05:26;;;;;;;1.20;1.10;;;;;;;6.42;71.24;99816.72;5018455;28;20218;-80
2021/01/20 11:07:52;;;;;;;1.33;1.07;;;;;;;6.38;71.34;99822.88;5034214;28;20229;-81
2021/01/20 11:10:18;;;;;;;2.03;1.30;;;;;;;6.34;71.44;99818.66;5036025;28;20208;-81
2021/01/20 11:12:46;;;;;;;1.57;1.47;;;;;;;6.29;71.74;99810.97;5020019;28;20215;-81
2021/01/20 11:15:12;;;;;;;1.57;1.17;;;;;;;6.17;72.05;99817.25;5039042;28;20283;-80
2021/01/20 11:17:38;;;;;;;1.43;1.17;;;;;;;6.08;71.87;99804.50;5035260;28;20224;-82
2021/01/20 11:20:06;;;;;;;1.30;1.20;;;;;;;6.06;72.20;99806.28;5040720;28;20204;-81
2021/01/20 11:22:32;;;;;;;1.17;1.07;;;;;;;6.00;72.89;99801.25;5035738;28;20261;-81
2021/01/20 11:25:00;;;;;;;1.80;1.33;;;;;;;5.91;72.65;99803.97;5033390;28;20204;-80
2021/01/20 11:27:26;;;;;;;2.50;1.30;;;;;;;5.89;72.99;99809.16;5030625;28;20209;-81
2021/01/20 11:29:52;;;;;;;1.83;1.13;;;;;;;5.90;73.12;99803.13;5037435;28;20195;-80
2021/01/20 11:32:18;;;;;;;1.33;1.20;;;;;;;5.95;72.99;99801.28;5038820;28;20226;-81
2021/01/20 11:34:44;;;;;;;1.30;1.20;;;;;;;6.07;71.91;99808.84;5027972;28;20265;-80
2021/01/20 11:37:10;;;;;;;1.20;1.10;;;;;;;6.17;71.06;99795.69;5032938;28;20215;-81
2021/01/20 11:39:37;;;;;;;1.20;1.07;;;;;;;6.20;71.63;99803.41;5035747;28;20200;-81
2021/01/20 11:42:03;;;;;;;1.63;1.30;;;;;;;6.19;71.77;99793.91;5042362;28;20783;-81
2021/01/20 11:44:28;;;;;;;1.17;1.03;;;;;;;6.26;71.82;99790.31;5035314;28;20204;-80
2021/01/20 11:46:54;;;;;;;1.10;1.00;;;;;;;6.31;71.37;99785.88;5042546;28;20226;-80
2021/01/20 11:49:20;;;;;;;1.63;1.20;;;;;;;6.41;70.68;99781.38;5036283;28;20200;-80